sensor_id;sensor_type;location;lat;lon;timestamp;P1;durP1;ratioP1;P2;durP2;ratioP2
33268;SDS011;19640;50.944;5.260;2022-08-01T00:01:04;1.90;;;1.20;;
33268;SDS011;19640;50.944;5.260;2022-08-01T00:03:30;1.65;;;1.20;;
33268;SDS011;19640;50.944;5.260;2022-08-01T00:05:55;1.55;;;1.00;;
33268;SDS011;19640;50.944;5.260;2022-08-01T00:08:21;1.30;;;1.20;;
33268;SDS011;19640;50.944;5.260;2022-08-01T00:10:47;1.35;;;1.20;;
33268;SDS011;19640;50.944;5.260;2022-08-01T00:13:12;1.42;;;1.13;;
33268;SDS011;19640;50.944;5.260;2022-08-01T00:15:38;1.58;;;1.17;;
33268;SDS011;19640;50.944;5.260;2022-08-01T00:18:03;1.85;;;1.30;;
33268;SDS011;19640;50.944;5.260;2022-08-01T00:20:29;1.75;;;1.10;;
33268;SDS011;19640;50.944;5.260;2022-08-01T00:22:55;1.30;;;1.15;;
33268;SDS011;19640;50.944;5.260;2022-08-01T00:25:20;1.27;;;1.13;;
33268;SDS011;19640;50.944;5.260;2022-08-01T00:27:46;2.47;;;1.20;;
33268;SDS011;19640;50.944;5.260;2022-08-01T00:30:12;2.85;;;1.23;;
33268;SDS011;19640;50.944;5.260;2022-08-01T00:32:37;2.28;;;1.23;;
33268;SDS011;19640;50.944;5.260;2022-08-01T00:35:03;1.50;;;1.10;;
33268;SDS011;19640;50.944;5.260;2022-08-01T00:37:29;2.33;;;1.40;;
33268;SDS011;19640;50.944;5.260;2022-08-01T00:39:54;1.90;;;1.27;;
33268;SDS011;19640;50.944;5.260;2022-08-01T00:42:20;2.65;;;1.08;;
33268;SDS011;19640;50.944;5.260;2022-08-01T00:44:46;3.17;;;1.20;;
33268;SDS011;19640;50.944;5.260;2022-08-01T00:47:12;1.58;;;1.45;;
33268;SDS011;19640;50.944;5.260;2022-08-01T00:49:37;1.92;;;1.30;;
33268;SDS011;19640;50.944;5.260;2022-08-01T00:52:03;2.20;;;1.20;;
33268;SDS011;19640;50.944;5.260;2022-08-01T00:54:30;2.47;;;1.33;;
33268;SDS011;19640;50.944;5.260;2022-08-01T00:56:57;2.83;;;1.40;;
33268;SDS011;19640;50.944;5.260;2022-08-01T00:59:23;1.20;;;1.08;;
33268;SDS011;19640;50.944;5.260;2022-08-01T01:01:49;1.20;;;1.10;;
33268;SDS011;19640;50.944;5.260;2022-08-01T01:04:15;2.45;;;1.20;;
33268;SDS011;19640;50.944;5.260;2022-08-01T01:06:44;2.20;;;1.20;;
33268;SDS011;19640;50.944;5.260;2022-08-01T01:09:34;2.85;;;1.20;;
33268;SDS011;19640;50.944;5.260;2022-08-01T01:12:15;2.53;;;1.02;;
33268;SDS011;19640;50.944;5.260;2022-08-01T01:14:48;2.55;;;1.25;;
33268;SDS011;19640;50.944;5.260;2022-08-01T01:17:32;4.93;;;1.20;;
33268;SDS011;19640;50.944;5.260;2022-08-01T01:20:12;2.80;;;1.33;;
33268;SDS011;19640;50.944;5.260;2022-08-01T01:25:28;1.40;;;1.30;;
33268;SDS011;19640;50.944;5.260;2022-08-01T01:30:43;1.95;;;1.15;;
33268;SDS011;19640;50.944;5.260;2022-08-01T01:33:11;1.50;;;1.10;;
33268;SDS011;19640;50.944;5.260;2022-08-01T01:35:41;7.38;;;2.10;;
33268;SDS011;19640;50.944;5.260;2022-08-01T01:38:14;4.07;;;1.50;;
33268;SDS011;19640;50.944;5.260;2022-08-01T01:40:41;2.20;;;1.20;;
33268;SDS011;19640;50.944;5.260;2022-08-01T01:43:09;1.63;;;1.30;;
33268;SDS011;19640;50.944;5.260;2022-08-01T01:45:36;2.03;;;1.38;;
33268;SDS011;19640;50.944;5.260;2022-08-01T01:48:04;1.95;;;1.20;;
33268;SDS011;19640;50.944;5.260;2022-08-01T01:50:31;3.45;;;1.50;;
33268;SDS011;19640;50.944;5.260;2022-08-01T01:52:57;2.00;;;1.20;;
33268;SDS011;19640;50.944;5.260;2022-08-01T01:55:25;2.67;;;1.50;;
33268;SDS011;19640;50.944;5.260;2022-08-01T01:57:52;2.33;;;1.50;;
33268;SDS011;19640;50.944;5.260;2022-08-01T02:00:20;4.28;;;1.58;;
33268;SDS011;19640;50.944;5.260;2022-08-01T02:02:47;3.72;;;1.80;;
33268;SDS011;19640;50.944;5.260;2022-08-01T02:05:15;4.07;;;1.38;;
33268;SDS011;19640;50.944;5.260;2022-08-01T02:07:40;2.17;;;1.95;;
33268;SDS011;19640;50.944;5.260;2022-08-01T02:10:07;3.08;;;1.48;;
33268;SDS011;19640;50.944;5.260;2022-08-01T02:12:36;2.42;;;1.65;;
33268;SDS011;19640;50.944;5.260;2022-08-01T02:15:04;5.80;;;2.20;;
33268;SDS011;19640;50.944;5.260;2022-08-01T02:17:30;3.17;;;1.75;;
33268;SDS011;19640;50.944;5.260;2022-08-01T02:19:56;2.75;;;1.70;;
33268;SDS011;19640;50.944;5.260;2022-08-01T02:22:26;2.28;;;1.83;;
33268;SDS011;19640;50.944;5.260;2022-08-01T02:25:00;3.25;;;1.88;;
33268;SDS011;19640;50.944;5.260;2022-08-01T02:27:46;4.25;;;2.28;;
33268;SDS011;19640;50.944;5.260;2022-08-01T02:30:21;4.65;;;1.70;;
33268;SDS011;19640;50.944;5.260;2022-08-01T02:32:51;3.25;;;1.85;;
33268;SDS011;19640;50.944;5.260;2022-08-01T02:35:23;3.30;;;2.28;;
33268;SDS011;19640;50.944;5.260;2022-08-01T02:37:52;3.80;;;2.22;;
33268;SDS011;19640;50.944;5.260;2022-08-01T02:40:18;3.90;;;2.05;;
33268;SDS011;19640;50.944;5.260;2022-08-01T02:42:45;3.72;;;2.40;;
33268;SDS011;19640;50.944;5.260;2022-08-01T02:45:14;4.88;;;2.03;;
33268;SDS011;19640;50.944;5.260;2022-08-01T02:47:43;4.55;;;2.50;;
33268;SDS011;19640;50.944;5.260;2022-08-01T02:50:10;4.00;;;2.45;;
33268;SDS011;19640;50.944;5.260;2022-08-01T02:52:38;3.00;;;2.33;;
33268;SDS011;19640;50.944;5.260;2022-08-01T02:55:05;3.28;;;2.75;;
33268;SDS011;19640;50.944;5.260;2022-08-01T02:57:32;4.20;;;2.65;;
33268;SDS011;19640;50.944;5.260;2022-08-01T02:59:59;6.30;;;2.75;;
33268;SDS011;19640;50.944;5.260;2022-08-01T03:02:25;3.38;;;2.75;;
33268;SDS011;19640;50.944;5.260;2022-08-01T03:04:52;4.32;;;3.05;;
33268;SDS011;19640;50.944;5.260;2022-08-01T03:07:19;3.22;;;2.70;;
33268;SDS011;19640;50.944;5.260;2022-08-01T03:09:45;4.40;;;2.75;;
33268;SDS011;19640;50.944;5.260;2022-08-01T03:12:14;3.35;;;2.35;;
33268;SDS011;19640;50.944;5.260;2022-08-01T03:14:49;4.22;;;2.63;;
33268;SDS011;19640;50.944;5.260;2022-08-01T03:17:19;2.80;;;2.10;;
33268;SDS011;19640;50.944;5.260;2022-08-01T03:19:48;3.13;;;2.03;;
33268;SDS011;19640;50.944;5.260;2022-08-01T03:22:16;3.35;;;3.05;;
33268;SDS011;19640;50.944;5.260;2022-08-01T03:24:42;5.72;;;2.90;;
33268;SDS011;19640;50.944;5.260;2022-08-01T03:27:10;3.60;;;2.90;;
33268;SDS011;19640;50.944;5.260;2022-08-01T03:29:39;4.50;;;2.70;;
33268;SDS011;19640;50.944;5.260;2022-08-01T03:32:06;5.00;;;2.65;;
33268;SDS011;19640;50.944;5.260;2022-08-01T03:34:33;5.40;;;2.63;;
33268;SDS011;19640;50.944;5.260;2022-08-01T03:37:02;4.35;;;3.00;;
33268;SDS011;19640;50.944;5.260;2022-08-01T03:42:47;5.63;;;3.17;;
33268;SDS011;19640;50.944;5.260;2022-08-01T03:45:36;5.32;;;3.85;;
33268;SDS011;19640;50.944;5.260;2022-08-01T03:48:05;8.38;;;4.00;;
33268;SDS011;19640;50.944;5.260;2022-08-01T03:53:02;5.57;;;3.17;;
33268;SDS011;19640;50.944;5.260;2022-08-01T03:55:29;3.85;;;2.60;;
33268;SDS011;19640;50.944;5.260;2022-08-01T03:57:56;8.35;;;3.20;;
33268;SDS011;19640;50.944;5.260;2022-08-01T04:00:22;6.05;;;2.78;;
33268;SDS011;19640;50.944;5.260;2022-08-01T04:02:49;7.28;;;4.28;;
33268;SDS011;19640;50.944;5.260;2022-08-01T04:05:16;7.28;;;4.72;;
33268;SDS011;19640;50.944;5.260;2022-08-01T04:07:49;5.35;;;4.15;;
33268;SDS011;19640;50.944;5.260;2022-08-01T04:10:21;6.90;;;4.47;;
33268;SDS011;19640;50.944;5.260;2022-08-01T04:12:47;6.53;;;4.80;;
33268;SDS011;19640;50.944;5.260;2022-08-01T04:15:13;5.50;;;4.03;;
33268;SDS011;19640;50.944;5.260;2022-08-01T04:17:39;7.20;;;3.97;;
33268;SDS011;19640;50.944;5.260;2022-08-01T04:20:05;7.85;;;3.78;;
33268;SDS011;19640;50.944;5.260;2022-08-01T04:22:31;5.03;;;3.90;;
33268;SDS011;19640;50.944;5.260;2022-08-01T04:24:57;9.57;;;4.30;;
33268;SDS011;19640;50.944;5.260;2022-08-01T04:27:35;5.45;;;3.63;;
33268;SDS011;19640;50.944;5.260;2022-08-01T04:30:03;6.32;;;3.83;;
33268;SDS011;19640;50.944;5.260;2022-08-01T04:32:31;6.22;;;3.55;;
33268;SDS011;19640;50.944;5.260;2022-08-01T04:35:01;5.97;;;4.32;;
33268;SDS011;19640;50.944;5.260;2022-08-01T04:39:58;8.57;;;4.80;;
33268;SDS011;19640;50.944;5.260;2022-08-01T04:42:25;8.82;;;4.88;;
33268;SDS011;19640;50.944;5.260;2022-08-01T04:44:52;4.50;;;4.10;;
33268;SDS011;19640;50.944;5.260;2022-08-01T04:47:18;6.97;;;5.57;;
33268;SDS011;19640;50.944;5.260;2022-08-01T04:49:44;6.78;;;5.28;;
33268;SDS011;19640;50.944;5.260;2022-08-01T04:52:11;9.90;;;6.72;;
33268;SDS011;19640;50.944;5.260;2022-08-01T04:54:37;15.25;;;7.38;;
33268;SDS011;19640;50.944;5.260;2022-08-01T04:57:03;9.02;;;6.45;;
33268;SDS011;19640;50.944;5.260;2022-08-01T04:59:30;10.45;;;6.70;;
33268;SDS011;19640;50.944;5.260;2022-08-01T05:02:07;8.35;;;6.45;;
33268;SDS011;19640;50.944;5.260;2022-08-01T05:04:33;14.98;;;7.53;;
33268;SDS011;19640;50.944;5.260;2022-08-01T05:06:59;10.50;;;7.03;;
33268;SDS011;19640;50.944;5.260;2022-08-01T05:09:25;15.07;;;8.68;;
33268;SDS011;19640;50.944;5.260;2022-08-01T05:11:51;14.82;;;10.48;;
33268;SDS011;19640;50.944;5.260;2022-08-01T05:14:17;18.65;;;12.00;;
33268;SDS011;19640;50.944;5.260;2022-08-01T05:16:42;19.42;;;12.35;;
33268;SDS011;19640;50.944;5.260;2022-08-01T05:19:09;17.17;;;12.13;;
33268;SDS011;19640;50.944;5.260;2022-08-01T05:21:35;15.05;;;12.68;;
33268;SDS011;19640;50.944;5.260;2022-08-01T05:24:01;14.90;;;12.52;;
33268;SDS011;19640;50.944;5.260;2022-08-01T05:26:27;16.35;;;12.65;;
33268;SDS011;19640;50.944;5.260;2022-08-01T05:28:52;15.77;;;12.15;;
33268;SDS011;19640;50.944;5.260;2022-08-01T05:31:18;16.67;;;12.13;;
33268;SDS011;19640;50.944;5.260;2022-08-01T05:33:44;21.35;;;12.95;;
33268;SDS011;19640;50.944;5.260;2022-08-01T05:36:09;21.30;;;14.70;;
33268;SDS011;19640;50.944;5.260;2022-08-01T05:38:35;19.63;;;12.93;;
33268;SDS011;19640;50.944;5.260;2022-08-01T05:41:01;27.27;;;15.27;;
33268;SDS011;19640;50.944;5.260;2022-08-01T05:43:26;24.27;;;17.50;;
33268;SDS011;19640;50.944;5.260;2022-08-01T05:45:52;27.75;;;18.23;;
33268;SDS011;19640;50.944;5.260;2022-08-01T05:48:17;18.25;;;13.60;;
33268;SDS011;19640;50.944;5.260;2022-08-01T05:50:43;20.88;;;12.38;;
33268;SDS011;19640;50.944;5.260;2022-08-01T05:53:09;19.38;;;12.27;;
33268;SDS011;19640;50.944;5.260;2022-08-01T05:55:35;21.70;;;12.00;;
33268;SDS011;19640;50.944;5.260;2022-08-01T05:58:00;21.10;;;12.88;;
33268;SDS011;19640;50.944;5.260;2022-08-01T06:00:26;22.35;;;12.63;;
33268;SDS011;19640;50.944;5.260;2022-08-01T06:02:52;23.13;;;13.48;;
33268;SDS011;19640;50.944;5.260;2022-08-01T06:05:18;17.23;;;12.45;;
33268;SDS011;19640;50.944;5.260;2022-08-01T06:07:43;14.13;;;11.15;;
33268;SDS011;19640;50.944;5.260;2022-08-01T06:10:09;15.50;;;10.90;;
33268;SDS011;19640;50.944;5.260;2022-08-01T06:12:35;14.02;;;11.05;;
33268;SDS011;19640;50.944;5.260;2022-08-01T06:15:02;11.68;;;8.73;;
33268;SDS011;19640;50.944;5.260;2022-08-01T06:17:28;14.93;;;9.88;;
33268;SDS011;19640;50.944;5.260;2022-08-01T06:19:54;12.30;;;10.30;;
33268;SDS011;19640;50.944;5.260;2022-08-01T06:22:20;11.82;;;8.75;;
33268;SDS011;19640;50.944;5.260;2022-08-01T06:24:46;10.68;;;8.00;;
33268;SDS011;19640;50.944;5.260;2022-08-01T06:27:12;13.35;;;9.80;;
33268;SDS011;19640;50.944;5.260;2022-08-01T06:29:37;11.05;;;8.25;;
33268;SDS011;19640;50.944;5.260;2022-08-01T06:32:03;9.50;;;7.95;;
33268;SDS011;19640;50.944;5.260;2022-08-01T06:34:29;12.98;;;8.10;;
33268;SDS011;19640;50.944;5.260;2022-08-01T06:36:55;12.27;;;7.43;;
33268;SDS011;19640;50.944;5.260;2022-08-01T06:39:20;10.18;;;7.63;;
33268;SDS011;19640;50.944;5.260;2022-08-01T06:41:46;9.98;;;8.32;;
33268;SDS011;19640;50.944;5.260;2022-08-01T06:44:14;8.93;;;7.20;;
33268;SDS011;19640;50.944;5.260;2022-08-01T06:46:40;9.73;;;8.07;;
33268;SDS011;19640;50.944;5.260;2022-08-01T06:49:05;9.40;;;7.18;;
33268;SDS011;19640;50.944;5.260;2022-08-01T06:51:31;11.95;;;9.25;;
33268;SDS011;19640;50.944;5.260;2022-08-01T06:53:57;8.90;;;7.65;;
33268;SDS011;19640;50.944;5.260;2022-08-01T06:56:29;9.23;;;7.43;;
33268;SDS011;19640;50.944;5.260;2022-08-01T06:58:55;10.38;;;7.13;;
33268;SDS011;19640;50.944;5.260;2022-08-01T07:01:25;9.50;;;8.07;;
33268;SDS011;19640;50.944;5.260;2022-08-01T07:03:54;8.93;;;6.57;;
33268;SDS011;19640;50.944;5.260;2022-08-01T07:06:20;7.63;;;6.75;;
33268;SDS011;19640;50.944;5.260;2022-08-01T07:08:47;7.75;;;6.13;;
33268;SDS011;19640;50.944;5.260;2022-08-01T07:11:13;6.75;;;6.05;;
33268;SDS011;19640;50.944;5.260;2022-08-01T07:13:38;5.85;;;5.20;;
33268;SDS011;19640;50.944;5.260;2022-08-01T07:16:04;6.82;;;5.13;;
33268;SDS011;19640;50.944;5.260;2022-08-01T07:18:29;7.75;;;5.20;;
33268;SDS011;19640;50.944;5.260;2022-08-01T07:20:55;8.45;;;5.72;;
33268;SDS011;19640;50.944;5.260;2022-08-01T07:23:21;7.97;;;6.85;;
33268;SDS011;19640;50.944;5.260;2022-08-01T07:25:47;6.63;;;5.95;;
33268;SDS011;19640;50.944;5.260;2022-08-01T07:28:14;8.43;;;7.20;;
33268;SDS011;19640;50.944;5.260;2022-08-01T07:30:40;8.27;;;7.43;;
33268;SDS011;19640;50.944;5.260;2022-08-01T07:33:07;9.40;;;5.93;;
33268;SDS011;19640;50.944;5.260;2022-08-01T07:35:33;7.28;;;6.57;;
33268;SDS011;19640;50.944;5.260;2022-08-01T07:37:59;7.38;;;6.63;;
33268;SDS011;19640;50.944;5.260;2022-08-01T07:40:24;6.85;;;5.25;;
33268;SDS011;19640;50.944;5.260;2022-08-01T07:42:50;7.07;;;6.30;;
33268;SDS011;19640;50.944;5.260;2022-08-01T07:45:16;6.05;;;5.40;;
33268;SDS011;19640;50.944;5.260;2022-08-01T07:47:41;7.70;;;5.25;;
33268;SDS011;19640;50.944;5.260;2022-08-01T07:50:07;8.38;;;5.68;;
33268;SDS011;19640;50.944;5.260;2022-08-01T07:52:33;7.28;;;6.57;;
33268;SDS011;19640;50.944;5.260;2022-08-01T07:54:59;6.82;;;5.00;;
33268;SDS011;19640;50.944;5.260;2022-08-01T07:57:25;5.82;;;5.10;;
33268;SDS011;19640;50.944;5.260;2022-08-01T07:59:51;6.78;;;5.22;;
33268;SDS011;19640;50.944;5.260;2022-08-01T08:02:16;6.05;;;4.75;;
33268;SDS011;19640;50.944;5.260;2022-08-01T08:04:42;6.43;;;4.70;;
33268;SDS011;19640;50.944;5.260;2022-08-01T08:07:08;4.80;;;4.25;;
33268;SDS011;19640;50.944;5.260;2022-08-01T08:09:34;6.88;;;4.82;;
33268;SDS011;19640;50.944;5.260;2022-08-01T08:11:59;4.40;;;4.00;;
33268;SDS011;19640;50.944;5.260;2022-08-01T08:14:25;4.07;;;3.15;;
33268;SDS011;19640;50.944;5.260;2022-08-01T08:16:51;3.95;;;3.30;;
33268;SDS011;19640;50.944;5.260;2022-08-01T08:19:17;3.78;;;2.95;;
33268;SDS011;19640;50.944;5.260;2022-08-01T08:21:43;3.42;;;2.60;;
33268;SDS011;19640;50.944;5.260;2022-08-01T08:24:09;4.70;;;3.80;;
33268;SDS011;19640;50.944;5.260;2022-08-01T08:26:44;4.00;;;3.60;;
33268;SDS011;19640;50.944;5.260;2022-08-01T08:29:13;4.05;;;3.55;;
33268;SDS011;19640;50.944;5.260;2022-08-01T08:31:39;3.17;;;2.88;;
33268;SDS011;19640;50.944;5.260;2022-08-01T08:34:04;3.58;;;3.22;;
33268;SDS011;19640;50.944;5.260;2022-08-01T08:36:30;4.30;;;3.10;;
33268;SDS011;19640;50.944;5.260;2022-08-01T08:38:56;3.10;;;2.88;;
33268;SDS011;19640;50.944;5.260;2022-08-01T08:41:34;3.47;;;3.15;;
33268;SDS011;19640;50.944;5.260;2022-08-01T08:44:06;3.42;;;3.13;;
33268;SDS011;19640;50.944;5.260;2022-08-01T08:46:33;3.25;;;2.95;;
33268;SDS011;19640;50.944;5.260;2022-08-01T08:49:05;3.28;;;3.08;;
33268;SDS011;19640;50.944;5.260;2022-08-01T08:51:32;3.13;;;2.92;;
33268;SDS011;19640;50.944;5.260;2022-08-01T08:53:59;3.83;;;3.58;;
33268;SDS011;19640;50.944;5.260;2022-08-01T08:56:27;3.15;;;2.95;;
33268;SDS011;19640;50.944;5.260;2022-08-01T08:58:58;3.05;;;2.00;;
33268;SDS011;19640;50.944;5.260;2022-08-01T09:01:25;1.90;;;1.80;;
33268;SDS011;19640;50.944;5.260;2022-08-01T09:03:51;2.10;;;2.00;;
33268;SDS011;19640;50.944;5.260;2022-08-01T09:06:18;2.78;;;2.00;;
33268;SDS011;19640;50.944;5.260;2022-08-01T09:08:44;4.20;;;1.88;;
33268;SDS011;19640;50.944;5.260;2022-08-01T09:11:10;1.92;;;1.55;;
33268;SDS011;19640;50.944;5.260;2022-08-01T09:13:37;1.42;;;1.20;;
33268;SDS011;19640;50.944;5.260;2022-08-01T09:16:02;1.70;;;1.20;;
33268;SDS011;19640;50.944;5.260;2022-08-01T09:23:34;2.05;;;1.38;;
33268;SDS011;19640;50.944;5.260;2022-08-01T09:26:04;2.03;;;1.50;;
33268;SDS011;19640;50.944;5.260;2022-08-01T09:28:34;2.00;;;1.33;;
33268;SDS011;19640;50.944;5.260;2022-08-01T09:31:11;1.58;;;1.40;;
33268;SDS011;19640;50.944;5.260;2022-08-01T09:36:17;1.52;;;1.40;;
33268;SDS011;19640;50.944;5.260;2022-08-01T09:38:44;2.28;;;1.63;;
33268;SDS011;19640;50.944;5.260;2022-08-01T09:41:09;1.95;;;1.63;;
33268;SDS011;19640;50.944;5.260;2022-08-01T09:43:36;1.95;;;1.50;;
33268;SDS011;19640;50.944;5.260;2022-08-01T09:46:11;1.52;;;1.00;;
33268;SDS011;19640;50.944;5.260;2022-08-01T09:48:37;3.58;;;1.30;;
33268;SDS011;19640;50.944;5.260;2022-08-01T09:51:04;2.97;;;1.60;;
33268;SDS011;19640;50.944;5.260;2022-08-01T09:53:41;2.50;;;1.30;;
33268;SDS011;19640;50.944;5.260;2022-08-01T09:56:09;1.08;;;0.90;;
33268;SDS011;19640;50.944;5.260;2022-08-01T09:58:48;1.88;;;1.45;;
33268;SDS011;19640;50.944;5.260;2022-08-01T10:01:15;1.67;;;1.30;;
33268;SDS011;19640;50.944;5.260;2022-08-01T10:03:40;2.22;;;1.00;;
33268;SDS011;19640;50.944;5.260;2022-08-01T10:06:19;1.35;;;1.10;;
33268;SDS011;19640;50.944;5.260;2022-08-01T10:08:46;1.67;;;0.98;;
33268;SDS011;19640;50.944;5.260;2022-08-01T10:11:13;1.90;;;1.40;;
33268;SDS011;19640;50.944;5.260;2022-08-01T10:13:38;2.83;;;1.15;;
33268;SDS011;19640;50.944;5.260;2022-08-01T10:16:05;1.48;;;1.02;;
33268;SDS011;19640;50.944;5.260;2022-08-01T10:18:32;1.23;;;1.10;;
33268;SDS011;19640;50.944;5.260;2022-08-01T10:21:00;1.70;;;1.30;;
33268;SDS011;19640;50.944;5.260;2022-08-01T10:23:26;2.22;;;1.40;;
33268;SDS011;19640;50.944;5.260;2022-08-01T10:25:55;2.05;;;1.10;;
33268;SDS011;19640;50.944;5.260;2022-08-01T10:28:23;1.15;;;0.90;;
33268;SDS011;19640;50.944;5.260;2022-08-01T10:30:51;3.15;;;0.85;;
33268;SDS011;19640;50.944;5.260;2022-08-01T10:33:17;1.25;;;1.00;;
33268;SDS011;19640;50.944;5.260;2022-08-01T10:35:45;0.80;;;0.77;;
33268;SDS011;19640;50.944;5.260;2022-08-01T10:38:11;1.92;;;1.00;;
33268;SDS011;19640;50.944;5.260;2022-08-01T10:40:37;1.15;;;1.00;;
33268;SDS011;19640;50.944;5.260;2022-08-01T10:43:03;1.20;;;0.90;;
33268;SDS011;19640;50.944;5.260;2022-08-01T10:45:29;1.65;;;0.90;;
33268;SDS011;19640;50.944;5.260;2022-08-01T10:50:41;1.52;;;1.10;;
33268;SDS011;19640;50.944;5.260;2022-08-01T10:53:14;1.10;;;1.00;;
33268;SDS011;19640;50.944;5.260;2022-08-01T10:58:26;1.20;;;1.10;;
33268;SDS011;19640;50.944;5.260;2022-08-01T11:03:42;2.50;;;1.23;;
33268;SDS011;19640;50.944;5.260;2022-08-01T11:11:27;2.53;;;1.08;;
33268;SDS011;19640;50.944;5.260;2022-08-01T11:16:30;3.80;;;1.15;;
33268;SDS011;19640;50.944;5.260;2022-08-01T11:18:57;1.40;;;1.30;;
33268;SDS011;19640;50.944;5.260;2022-08-01T11:27:17;2.78;;;1.80;;
33268;SDS011;19640;50.944;5.260;2022-08-01T11:29:43;2.50;;;1.58;;
33268;SDS011;19640;50.944;5.260;2022-08-01T11:32:25;1.35;;;1.17;;
33268;SDS011;19640;50.944;5.260;2022-08-01T11:34:52;2.85;;;1.00;;
33268;SDS011;19640;50.944;5.260;2022-08-01T11:37:23;8.00;;;1.38;;
33268;SDS011;19640;50.944;5.260;2022-08-01T11:42:41;1.08;;;1.05;;
33268;SDS011;19640;50.944;5.260;2022-08-01T11:45:06;1.35;;;1.20;;
33268;SDS011;19640;50.944;5.260;2022-08-01T11:47:52;1.55;;;1.30;;
33268;SDS011;19640;50.944;5.260;2022-08-01T11:53:06;1.20;;;1.20;;
33268;SDS011;19640;50.944;5.260;2022-08-01T11:55:33;3.88;;;1.77;;
33268;SDS011;19640;50.944;5.260;2022-08-01T11:58:05;1.45;;;1.05;;
33268;SDS011;19640;50.944;5.260;2022-08-01T12:00:32;1.20;;;1.10;;
33268;SDS011;19640;50.944;5.260;2022-08-01T12:03:02;2.38;;;0.95;;
33268;SDS011;19640;50.944;5.260;2022-08-01T12:05:29;1.17;;;1.00;;
33268;SDS011;19640;50.944;5.260;2022-08-01T12:07:58;0.85;;;0.80;;
33268;SDS011;19640;50.944;5.260;2022-08-01T12:10:26;0.75;;;0.70;;
33268;SDS011;19640;50.944;5.260;2022-08-01T12:12:59;0.70;;;0.60;;
33268;SDS011;19640;50.944;5.260;2022-08-01T12:15:29;2.03;;;0.70;;
33268;SDS011;19640;50.944;5.260;2022-08-01T12:17:59;0.60;;;0.60;;
33268;SDS011;19640;50.944;5.260;2022-08-01T12:20:30;0.90;;;0.90;;
33268;SDS011;19640;50.944;5.260;2022-08-01T12:23:05;1.63;;;0.55;;
33268;SDS011;19640;50.944;5.260;2022-08-01T12:25:33;0.68;;;0.68;;
33268;SDS011;19640;50.944;5.260;2022-08-01T12:28:00;0.70;;;0.70;;
33268;SDS011;19640;50.944;5.260;2022-08-01T12:30:27;1.60;;;0.77;;
33268;SDS011;19640;50.944;5.260;2022-08-01T12:32:55;0.80;;;0.52;;
33268;SDS011;19640;50.944;5.260;2022-08-01T12:35:26;0.90;;;0.70;;
33268;SDS011;19640;50.944;5.260;2022-08-01T12:40:27;1.33;;;0.55;;
33268;SDS011;19640;50.944;5.260;2022-08-01T12:42:58;2.75;;;0.75;;
33268;SDS011;19640;50.944;5.260;2022-08-01T12:45:44;1.15;;;0.68;;
33268;SDS011;19640;50.944;5.260;2022-08-01T12:48:12;0.65;;;0.60;;
33268;SDS011;19640;50.944;5.260;2022-08-01T12:50:41;0.90;;;0.60;;
33268;SDS011;19640;50.944;5.260;2022-08-01T12:53:09;0.60;;;0.60;;
33268;SDS011;19640;50.944;5.260;2022-08-01T12:55:45;0.50;;;0.50;;
33268;SDS011;19640;50.944;5.260;2022-08-01T12:58:13;2.65;;;0.60;;
33268;SDS011;19640;50.944;5.260;2022-08-01T13:00:40;1.13;;;0.80;;
33268;SDS011;19640;50.944;5.260;2022-08-01T13:03:10;0.93;;;0.57;;
33268;SDS011;19640;50.944;5.260;2022-08-01T13:08:22;1.00;;;0.50;;
33268;SDS011;19640;50.944;5.260;2022-08-01T13:10:50;1.85;;;0.70;;
33268;SDS011;19640;50.944;5.260;2022-08-01T13:13:26;0.73;;;0.73;;
33268;SDS011;19640;50.944;5.260;2022-08-01T13:16:04;1.55;;;0.57;;
33268;SDS011;19640;50.944;5.260;2022-08-01T13:18:32;2.13;;;0.77;;
33268;SDS011;19640;50.944;5.260;2022-08-01T13:26:07;1.58;;;0.70;;
33268;SDS011;19640;50.944;5.260;2022-08-01T13:28:33;1.58;;;0.70;;
33268;SDS011;19640;50.944;5.260;2022-08-01T13:31:03;1.83;;;0.95;;
33268;SDS011;19640;50.944;5.260;2022-08-01T13:33:41;2.13;;;0.60;;
33268;SDS011;19640;50.944;5.260;2022-08-01T13:36:08;1.30;;;0.60;;
33268;SDS011;19640;50.944;5.260;2022-08-01T13:38:34;0.95;;;0.77;;
33268;SDS011;19640;50.944;5.260;2022-08-01T13:41:18;1.55;;;0.80;;
33268;SDS011;19640;50.944;5.260;2022-08-01T13:43:44;2.15;;;0.90;;
33268;SDS011;19640;50.944;5.260;2022-08-01T13:46:09;1.20;;;0.90;;
33268;SDS011;19640;50.944;5.260;2022-08-01T13:48:35;2.40;;;0.75;;
33268;SDS011;19640;50.944;5.260;2022-08-01T13:51:01;1.35;;;0.80;;
33268;SDS011;19640;50.944;5.260;2022-08-01T13:53:27;1.27;;;0.70;;
33268;SDS011;19640;50.944;5.260;2022-08-01T13:55:53;2.83;;;0.93;;
33268;SDS011;19640;50.944;5.260;2022-08-01T13:58:19;3.20;;;0.90;;
33268;SDS011;19640;50.944;5.260;2022-08-01T14:00:44;1.52;;;1.20;;
33268;SDS011;19640;50.944;5.260;2022-08-01T14:03:11;1.65;;;0.95;;
33268;SDS011;19640;50.944;5.260;2022-08-01T14:05:37;1.48;;;0.93;;
33268;SDS011;19640;50.944;5.260;2022-08-01T14:08:03;1.67;;;0.93;;
33268;SDS011;19640;50.944;5.260;2022-08-01T14:10:29;2.70;;;1.02;;
33268;SDS011;19640;50.944;5.260;2022-08-01T14:12:54;1.77;;;0.90;;
33268;SDS011;19640;50.944;5.260;2022-08-01T14:15:21;1.88;;;1.02;;
33268;SDS011;19640;50.944;5.260;2022-08-01T14:17:47;2.00;;;1.10;;
33268;SDS011;19640;50.944;5.260;2022-08-01T14:20:12;1.80;;;1.17;;
33268;SDS011;19640;50.944;5.260;2022-08-01T14:22:38;1.60;;;0.95;;
33268;SDS011;19640;50.944;5.260;2022-08-01T14:25:05;1.73;;;1.00;;
33268;SDS011;19640;50.944;5.260;2022-08-01T14:27:31;2.05;;;1.10;;
33268;SDS011;19640;50.944;5.260;2022-08-01T14:30:01;1.60;;;0.90;;
33268;SDS011;19640;50.944;5.260;2022-08-01T14:32:27;2.88;;;1.15;;
33268;SDS011;19640;50.944;5.260;2022-08-01T14:34:53;1.40;;;1.27;;
33268;SDS011;19640;50.944;5.260;2022-08-01T14:37:20;1.40;;;0.77;;
33268;SDS011;19640;50.944;5.260;2022-08-01T14:39:46;2.65;;;0.90;;
33268;SDS011;19640;50.944;5.260;2022-08-01T14:42:11;1.13;;;0.90;;
33268;SDS011;19640;50.944;5.260;2022-08-01T14:44:37;1.48;;;1.10;;
33268;SDS011;19640;50.944;5.260;2022-08-01T14:47:03;1.60;;;1.00;;
33268;SDS011;19640;50.944;5.260;2022-08-01T14:49:31;2.92;;;1.20;;
33268;SDS011;19640;50.944;5.260;2022-08-01T14:51:57;3.92;;;1.20;;
33268;SDS011;19640;50.944;5.260;2022-08-01T14:54:22;2.63;;;1.08;;
33268;SDS011;19640;50.944;5.260;2022-08-01T14:56:48;3.58;;;1.10;;
33268;SDS011;19640;50.944;5.260;2022-08-01T14:59:14;1.52;;;1.10;;
33268;SDS011;19640;50.944;5.260;2022-08-01T15:01:40;1.25;;;1.02;;
33268;SDS011;19640;50.944;5.260;2022-08-01T15:04:05;1.50;;;1.10;;
33268;SDS011;19640;50.944;5.260;2022-08-01T15:06:31;1.15;;;1.00;;
33268;SDS011;19640;50.944;5.260;2022-08-01T15:08:57;3.42;;;1.00;;
33268;SDS011;19640;50.944;5.260;2022-08-01T15:11:22;2.60;;;1.10;;
33268;SDS011;19640;50.944;5.260;2022-08-01T15:13:48;2.17;;;1.13;;
33268;SDS011;19640;50.944;5.260;2022-08-01T15:16:36;1.88;;;0.80;;
33268;SDS011;19640;50.944;5.260;2022-08-01T15:19:02;2.00;;;1.02;;
33268;SDS011;19640;50.944;5.260;2022-08-01T15:21:28;1.73;;;1.00;;
33268;SDS011;19640;50.944;5.260;2022-08-01T15:23:54;1.80;;;1.05;;
33268;SDS011;19640;50.944;5.260;2022-08-01T15:26:20;1.50;;;1.10;;
33268;SDS011;19640;50.944;5.260;2022-08-01T15:28:45;6.65;;;1.92;;
33268;SDS011;19640;50.944;5.260;2022-08-01T15:31:11;3.22;;;1.13;;
33268;SDS011;19640;50.944;5.260;2022-08-01T15:33:37;1.30;;;1.10;;
33268;SDS011;19640;50.944;5.260;2022-08-01T15:36:03;3.67;;;1.05;;
33268;SDS011;19640;50.944;5.260;2022-08-01T15:38:29;1.13;;;0.95;;
33268;SDS011;19640;50.944;5.260;2022-08-01T15:40:54;2.60;;;1.20;;
33268;SDS011;19640;50.944;5.260;2022-08-01T15:43:20;2.13;;;1.20;;
33268;SDS011;19640;50.944;5.260;2022-08-01T15:45:46;2.33;;;1.15;;
33268;SDS011;19640;50.944;5.260;2022-08-01T15:48:11;3.30;;;1.08;;